sensor_id;sensor_type;location;lat;lon;timestamp;pressure;altitude;pressure_sealevel;temperature;humidity
63622;BME280;49770;47.544;19.074;2023-05-03T04:17:54;100619.91;;;12.04;100.00
63622;BME280;49770;47.544;19.074;2023-05-03T04:21:01;100615.56;;;12.02;100.00
63622;BME280;49770;47.544;19.074;2023-05-03T04:24:14;100618.94;;;12.05;100.00
63622;BME280;49770;47.544;19.074;2023-05-03T04:27:25;100629.50;;;12.07;100.00
63622;BME280;49770;47.544;19.074;2023-05-03T04:30:33;100626.69;;;12.10;100.00
63622;BME280;49770;47.544;19.074;2023-05-03T04:33:41;100632.69;;;12.13;100.00
63622;BME280;49770;47.544;19.074;2023-05-03T04:36:48;100632.69;;;12.13;100.00
63622;BME280;49770;47.544;19.074;2023-05-03T04:39:57;100635.22;;;12.17;100.00
63622;BME280;49770;47.544;19.074;2023-05-03T04:43:04;100639.19;;;12.25;100.00
63622;BME280;49770;47.544;19.074;2023-05-03T04:46:15;100633.53;;;12.32;100.00
63622;BME280;49770;47.544;19.074;2023-05-03T04:49:24;100640.19;;;12.40;100.00
63622;BME280;49770;47.544;19.074;2023-05-03T04:52:32;100639.06;;;12.45;100.00
63622;BME280;49770;47.544;19.074;2023-05-03T04:55:41;100640.37;;;12.53;100.00
63622;BME280;49770;47.544;19.074;2023-05-03T04:58:53;100641.91;;;12.42;100.00
63622;BME280;49770;47.544;19.074;2023-05-03T05:01:58;100643.69;;;12.41;100.00
63622;BME280;49770;47.544;19.074;2023-05-03T05:05:07;100654.34;;;12.57;100.00
63622;BME280;49770;47.544;19.074;2023-05-03T05:08:15;100659.12;;;12.68;100.00
63622;BME280;49770;47.544;19.074;2023-05-03T05:11:23;100643.50;;;12.78;100.00
63622;BME280;49770;47.544;19.074;2023-05-03T05:14:31;100657.25;;;12.86;100.00
63622;BME280;49770;47.544;19.074;2023-05-03T05:17:39;100648.84;;;12.94;100.00
63622;BME280;49770;47.544;19.074;2023-05-03T05:20:45;100656.50;;;13.00;100.00
63622;BME280;49770;47.544;19.074;2023-05-03T05:23:51;100655.13;;;13.09;100.00
63622;BME280;49770;47.544;19.074;2023-05-03T05:26:57;100649.59;;;13.12;100.00
63622;BME280;49770;47.544;19.074;2023-05-03T05:30:07;100646.69;;;13.49;100.00
63622;BME280;49770;47.544;19.074;2023-05-03T05:33:15;100650.66;;;13.58;100.00
63622;BME280;49770;47.544;19.074;2023-05-03T05:36:23;100658.72;;;13.87;100.00
63622;BME280;49770;47.544;19.074;2023-05-03T05:39:31;100652.94;;;13.95;100.00
63622;BME280;49770;47.544;19.074;2023-05-03T05:42:38;100650.63;;;14.19;100.00
63622;BME280;49770;47.544;19.074;2023-05-03T05:45:41;100654.47;;;14.44;100.00
63622;BME280;49770;47.544;19.074;2023-05-03T05:48:45;100667.25;;;14.82;100.00
63622;BME280;49770;47.544;19.074;2023-05-03T05:51:54;100666.41;;;15.52;100.00
63622;BME280;49770;47.544;19.074;2023-05-03T05:55:03;100661.81;;;15.81;100.00
63622;BME280;49770;47.544;19.074;2023-05-03T05:58:08;100673.53;;;16.19;100.00
63622;BME280;49770;47.544;19.074;2023-05-03T06:01:16;100684.91;;;16.36;100.00
63622;BME280;49770;47.544;19.074;2023-05-03T06:04:19;100690.66;;;16.16;100.00
63622;BME280;49770;47.544;19.074;2023-05-03T06:07:23;100698.22;;;15.69;100.00
63622;BME280;49770;47.544;19.074;2023-05-03T06:10:31;100697.81;;;15.75;100.00
63622;BME280;49770;47.544;19.074;2023-05-03T06:13:37;100701.84;;;15.55;100.00
63622;BME280;49770;47.544;19.074;2023-05-03T06:16:43;100705.09;;;15.46;100.00
63622;BME280;49770;47.544;19.074;2023-05-03T06:19:48;100711.50;;;15.43;100.00
63622;BME280;49770;47.544;19.074;2023-05-03T06:22:55;100719.22;;;15.48;100.00
63622;BME280;49770;47.544;19.074;2023-05-03T06:26:01;100722.94;;;15.73;100.00
63622;BME280;49770;47.544;19.074;2023-05-03T06:29:10;100716.34;;;15.51;100.00
63622;BME280;49770;47.544;19.074;2023-05-03T06:32:15;100718.56;;;15.44;100.00
63622;BME280;49770;47.544;19.074;2023-05-03T06:35:21;100729.50;;;15.54;100.00
63622;BME280;49770;47.544;19.074;2023-05-03T06:38:29;100737.34;;;15.57;100.00
63622;BME280;49770;47.544;19.074;2023-05-03T06:41:35;100733.81;;;15.57;100.00
63622;BME280;49770;47.544;19.074;2023-05-03T06:44:42;100739.06;;;15.58;100.00
63622;BME280;49770;47.544;19.074;2023-05-03T06:47:48;100732.19;;;15.82;100.00
63622;BME280;49770;47.544;19.074;2023-05-03T06:50:56;100738.00;;;16.29;100.00
63622;BME280;49770;47.544;19.074;2023-05-03T06:54:03;100737.31;;;16.79;100.00
63622;BME280;49770;47.544;19.074;2023-05-03T06:57:16;100738.78;;;17.09;100.00
63622;BME280;49770;47.544;19.074;2023-05-03T07:00:23;100739.41;;;17.26;100.00
63622;BME280;49770;47.544;19.074;2023-05-03T07:03:33;100743.66;;;17.65;100.00
63622;BME280;49770;47.544;19.074;2023-05-03T07:06:40;100743.09;;;17.98;100.00
63622;BME280;49770;47.544;19.074;2023-05-03T07:09:59;100735.03;;;18.92;100.00
63622;BME280;49770;47.544;19.074;2023-05-03T07:13:03;100736.84;;;18.92;100.00
63622;BME280;49770;47.544;19.074;2023-05-03T07:16:08;100736.97;;;19.80;100.00
63622;BME280;49770;47.544;19.074;2023-05-03T07:19:16;100741.31;;;19.92;100.00
63622;BME280;49770;47.544;19.074;2023-05-03T07:22:24;100742.63;;;19.77;100.00
63622;BME280;49770;47.544;19.074;2023-05-03T07:25:32;100746.03;;;19.12;100.00
63622;BME280;49770;47.544;19.074;2023-05-03T07:28:36;100739.78;;;19.34;100.00
63622;BME280;49770;47.544;19.074;2023-05-03T07:31:41;100733.41;;;19.47;100.00
63622;BME280;49770;47.544;19.074;2023-05-03T07:34:47;100739.00;;;19.55;100.00
63622;BME280;49770;47.544;19.074;2023-05-03T07:37:52;100746.50;;;19.29;100.00
63622;BME280;49770;47.544;19.074;2023-05-03T07:40:59;100748.06;;;19.98;100.00
63622;BME280;49770;47.544;19.074;2023-05-03T07:44:05;100749.06;;;19.97;100.00
63622;BME280;49770;47.544;19.074;2023-05-03T07:47:12;100746.81;;;19.70;100.00
63622;BME280;49770;47.544;19.074;2023-05-03T07:50:19;100748.84;;;19.77;100.00
63622;BME280;49770;47.544;19.074;2023-05-03T07:53:26;100751.00;;;20.28;100.00
63622;BME280;49770;47.544;19.074;2023-05-03T07:56:34;100755.44;;;20.17;100.00
63622;BME280;49770;47.544;19.074;2023-05-03T07:59:39;100757.28;;;19.17;100.00
63622;BME280;49770;47.544;19.074;2023-05-03T08:02:44;100756.63;;;19.36;100.00
63622;BME280;49770;47.544;19.074;2023-05-03T08:05:51;100756.72;;;19.58;100.00
63622;BME280;49770;47.544;19.074;2023-05-03T08:08:54;100756.81;;;19.67;100.00
63622;BME280;49770;47.544;19.074;2023-05-03T08:11:57;100757.84;;;20.32;100.00
63622;BME280;49770;47.544;19.074;2023-05-03T08:15:00;100772.25;;;20.95;100.00
63622;BME280;49770;47.544;19.074;2023-05-03T08:18:05;100761.75;;;20.92;99.94
63622;BME280;49770;47.544;19.074;2023-05-03T08:21:11;100770.59;;;21.04;100.00
63622;BME280;49770;47.544;19.074;2023-05-03T08:24:18;100770.28;;;21.38;100.00
63622;BME280;49770;47.544;19.074;2023-05-03T08:27:25;100766.94;;;21.56;97.37
63622;BME280;49770;47.544;19.074;2023-05-03T08:30:31;100766.75;;;21.47;100.00
63622;BME280;49770;47.544;19.074;2023-05-03T08:33:36;100765.59;;;21.40;94.73
63622;BME280;49770;47.544;19.074;2023-05-03T08:36:40;100773.22;;;21.76;94.44
63622;BME280;49770;47.544;19.074;2023-05-03T08:39:45;100767.97;;;20.71;94.89
63622;BME280;49770;47.544;19.074;2023-05-03T08:42:53;100767.59;;;21.38;93.99
63622;BME280;49770;47.544;19.074;2023-05-03T08:46:00;100762.84;;;21.20;96.07
63622;BME280;49770;47.544;19.074;2023-05-03T08:49:06;100771.44;;;21.45;93.79
63622;BME280;49770;47.544;19.074;2023-05-03T08:52:13;100767.78;;;21.66;93.53
63622;BME280;49770;47.544;19.074;2023-05-03T08:55:22;100774.66;;;21.90;95.92
63622;BME280;49770;47.544;19.074;2023-05-03T08:58:27;100771.81;;;22.31;88.25
63622;BME280;49770;47.544;19.074;2023-05-03T09:01:35;100774.81;;;22.57;87.37
63622;BME280;49770;47.544;19.074;2023-05-03T09:04:42;100772.56;;;22.23;86.71
63622;BME280;49770;47.544;19.074;2023-05-03T09:08:09;100773.13;;;22.27;90.44
63622;BME280;49770;47.544;19.074;2023-05-03T09:11:23;100773.38;;;22.33;86.29
63622;BME280;49770;47.544;19.074;2023-05-03T09:14:27;100769.69;;;22.15;83.35
63622;BME280;49770;47.544;19.074;2023-05-03T09:17:37;100774.53;;;22.11;86.23
63622;BME280;49770;47.544;19.074;2023-05-03T09:20:46;100770.66;;;22.43;84.96
63622;BME280;49770;47.544;19.074;2023-05-03T09:23:58;100772.72;;;22.02;85.02
63622;BME280;49770;47.544;19.074;2023-05-03T09:27:17;100774.66;;;22.59;84.37
63622;BME280;49770;47.544;19.074;2023-05-03T09:30:24;100776.66;;;22.17;81.96
63622;BME280;49770;47.544;19.074;2023-05-03T09:33:28;100775.66;;;21.79;86.44
63622;BME280;49770;47.544;19.074;2023-05-03T09:36:48;100773.81;;;22.58;82.40
63622;BME280;49770;47.544;19.074;2023-05-03T09:40:04;100772.69;;;23.37;79.20
63622;BME280;49770;47.544;19.074;2023-05-03T09:43:12;100771.81;;;24.01;74.35
63622;BME280;49770;47.544;19.074;2023-05-03T09:46:22;100775.91;;;23.68;76.47
63622;BME280;49770;47.544;19.074;2023-05-03T09:49:32;100771.25;;;24.52;74.93
63622;BME280;49770;47.544;19.074;2023-05-03T09:52:36;100766.47;;;24.72;73.17
63622;BME280;49770;47.544;19.074;2023-05-03T09:55:41;100772.06;;;23.43;76.14
63622;BME280;49770;47.544;19.074;2023-05-03T09:58:50;100769.13;;;24.01;76.56
63622;BME280;49770;47.544;19.074;2023-05-03T10:01:56;100771.09;;;23.06;80.34
63622;BME280;49770;47.544;19.074;2023-05-03T10:05:05;100769.84;;;23.28;79.18
63622;BME280;49770;47.544;19.074;2023-05-03T10:08:21;100765.63;;;22.78;78.88
63622;BME280;49770;47.544;19.074;2023-05-03T10:11:30;100758.56;;;22.67;78.81
63622;BME280;49770;47.544;19.074;2023-05-03T10:14:39;100759.91;;;22.91;78.76
63622;BME280;49770;47.544;19.074;2023-05-03T10:17:44;100762.72;;;22.22;86.58
63622;BME280;49770;47.544;19.074;2023-05-03T10:20:58;100762.66;;;21.53;83.73
63622;BME280;49770;47.544;19.074;2023-05-03T10:24:15;100752.63;;;21.75;84.06
63622;BME280;49770;47.544;19.074;2023-05-03T10:27:20;100757.59;;;21.79;81.46
63622;BME280;49770;47.544;19.074;2023-05-03T10:30:33;100758.75;;;21.77;83.71
63622;BME280;49770;47.544;19.074;2023-05-03T10:33:42;100758.47;;;21.70;81.67
63622;BME280;49770;47.544;19.074;2023-05-03T10:36:50;100763.16;;;21.78;80.91
63622;BME280;49770;47.544;19.074;2023-05-03T10:40:12;100753.50;;;22.05;81.61
63622;BME280;49770;47.544;19.074;2023-05-03T10:46:38;100762.22;;;20.54;85.28
63622;BME280;49770;47.544;19.074;2023-05-03T10:49:44;100762.78;;;21.00;84.48
63622;BME280;49770;47.544;19.074;2023-05-03T10:52:52;100754.38;;;20.94;88.21
63622;BME280;49770;47.544;19.074;2023-05-03T10:56:12;100742.09;;;21.11;86.70
63622;BME280;49770;47.544;19.074;2023-05-03T10:59:19;100745.72;;;21.41;85.32
63622;BME280;49770;47.544;19.074;2023-05-03T11:02:29;100739.72;;;21.27;84.99
63622;BME280;49770;47.544;19.074;2023-05-03T11:05:36;100746.53;;;20.59;85.30
63622;BME280;49770;47.544;19.074;2023-05-03T11:08:47;100744.66;;;20.39;88.72
63622;BME280;49770;47.544;19.074;2023-05-03T11:11:52;100742.31;;;20.45;87.60
63622;BME280;49770;47.544;19.074;2023-05-03T11:14:55;100739.03;;;20.42;87.37
63622;BME280;49770;47.544;19.074;2023-05-03T11:17:59;100743.75;;;20.50;87.84
63622;BME280;49770;47.544;19.074;2023-05-03T11:21:05;100743.88;;;20.69;87.07
63622;BME280;49770;47.544;19.074;2023-05-03T11:24:10;100748.81;;;20.85;85.78
63622;BME280;49770;47.544;19.074;2023-05-03T11:27:22;100746.94;;;20.86;87.96
63622;BME280;49770;47.544;19.074;2023-05-03T11:30:28;100752.13;;;20.78;83.48
63622;BME280;49770;47.544;19.074;2023-05-03T11:33:34;100749.13;;;20.50;87.11
63622;BME280;49770;47.544;19.074;2023-05-03T11:36:40;100756.00;;;20.00;90.21
63622;BME280;49770;47.544;19.074;2023-05-03T11:39:46;100746.19;;;20.31;88.99
63622;BME280;49770;47.544;19.074;2023-05-03T11:42:54;100751.09;;;20.05;90.77
63622;BME280;49770;47.544;19.074;2023-05-03T11:46:00;100743.88;;;20.05;90.54
63622;BME280;49770;47.544;19.074;2023-05-03T11:49:07;100740.59;;;20.02;91.69
63622;BME280;49770;47.544;19.074;2023-05-03T11:55:20;100748.63;;;20.13;90.44
63622;BME280;49770;47.544;19.074;2023-05-03T11:58:24;100738.63;;;19.92;93.00
63622;BME280;49770;47.544;19.074;2023-05-03T12:01:29;100741.41;;;19.70;93.58
63622;BME280;49770;47.544;19.074;2023-05-03T12:04:36;100737.75;;;19.71;92.62
63622;BME280;49770;47.544;19.074;2023-05-03T12:07:44;100734.63;;;19.87;91.55
63622;BME280;49770;47.544;19.074;2023-05-03T12:10:56;100732.91;;;19.53;95.42
63622;BME280;49770;47.544;19.074;2023-05-03T12:14:04;100737.72;;;19.26;96.32
63622;BME280;49770;47.544;19.074;2023-05-03T12:17:08;100733.91;;;19.41;95.43
63622;BME280;49770;47.544;19.074;2023-05-03T12:20:21;100735.22;;;19.46;97.29
63622;BME280;49770;47.544;19.074;2023-05-03T12:23:30;100733.50;;;19.57;97.05
63622;BME280;49770;47.544;19.074;2023-05-03T12:26:36;100734.53;;;19.33;97.89
63622;BME280;49770;47.544;19.074;2023-05-03T12:29:45;100729.63;;;19.38;96.60
63622;BME280;49770;47.544;19.074;2023-05-03T12:32:49;100723.81;;;19.65;96.15
63622;BME280;49770;47.544;19.074;2023-05-03T12:35:55;100721.87;;;20.00;96.67
63622;BME280;49770;47.544;19.074;2023-05-03T12:39:01;100718.66;;;20.06;95.59
63622;BME280;49770;47.544;19.074;2023-05-03T12:42:06;100723.66;;;20.32;92.14
63622;BME280;49770;47.544;19.074;2023-05-03T12:45:12;100715.78;;;20.19;90.34
63622;BME280;49770;47.544;19.074;2023-05-03T12:48:23;100712.72;;;19.80;93.17
63622;BME280;49770;47.544;19.074;2023-05-03T12:51:30;100711.03;;;19.79;92.88
63622;BME280;49770;47.544;19.074;2023-05-03T12:54:36;100710.47;;;19.64;92.72
63622;BME280;49770;47.544;19.074;2023-05-03T12:57:43;100711.22;;;19.87;91.59
63622;BME280;49770;47.544;19.074;2023-05-03T13:00:50;100703.88;;;19.68;91.57
63622;BME280;49770;47.544;19.074;2023-05-03T13:04:14;100710.88;;;19.59;95.17
63622;BME280;49770;47.544;19.074;2023-05-03T13:07:42;100704.56;;;19.70;96.88
63622;BME280;49770;47.544;19.074;2023-05-03T13:10:49;100704.31;;;19.41;96.38
63622;BME280;49770;47.544;19.074;2023-05-03T13:13:55;100700.41;;;19.45;95.69
63622;BME280;49770;47.544;19.074;2023-05-03T13:16:59;100696.53;;;19.59;100.00
63622;BME280;49770;47.544;19.074;2023-05-03T13:20:07;100700.09;;;19.04;100.00
63622;BME280;49770;47.544;19.074;2023-05-03T13:23:14;100703.75;;;19.03;100.00
63622;BME280;49770;47.544;19.074;2023-05-03T13:26:17;100694.81;;;18.79;100.00
63622;BME280;49770;47.544;19.074;2023-05-03T13:29:20;100696.16;;;18.85;100.00
63622;BME280;49770;47.544;19.074;2023-05-03T13:32:27;100693.47;;;18.96;100.00
63622;BME280;49770;47.544;19.074;2023-05-03T13:35:32;100691.37;;;19.00;100.00
63622;BME280;49770;47.544;19.074;2023-05-03T13:38:37;100689.19;;;19.28;100.00
63622;BME280;49770;47.544;19.074;2023-05-03T13:41:45;100688.22;;;19.62;100.00
63622;BME280;49770;47.544;19.074;2023-05-03T13:44:53;100687.78;;;19.78;100.00
63622;BME280;49770;47.544;19.074;2023-05-03T13:47:59;100688.19;;;19.73;100.00
63622;BME280;49770;47.544;19.074;2023-05-03T13:51:22;100683.09;;;19.59;100.00
63622;BME280;49770;47.544;19.074;2023-05-03T13:54:29;100682.41;;;19.45;99.31
63622;BME280;49770;47.544;19.074;2023-05-03T13:57:35;100690.50;;;19.78;100.00
63622;BME280;49770;47.544;19.074;2023-05-03T14:00:40;100682.22;;;19.70;100.00
63622;BME280;49770;47.544;19.074;2023-05-03T14:03:45;100679.84;;;19.44;98.69
63622;BME280;49770;47.544;19.074;2023-05-03T14:06:52;100676.69;;;19.38;100.00
63622;BME280;49770;47.544;19.074;2023-05-03T14:09:57;100679.38;;;19.71;97.85
63622;BME280;49770;47.544;19.074;2023-05-03T14:13:06;100679.75;;;19.66;96.33
63622;BME280;49770;47.544;19.074;2023-05-03T14:16:17;100683.31;;;19.67;96.38
63622;BME280;49770;47.544;19.074;2023-05-03T14:19:41;100673.78;;;19.63;97.88
63622;BME280;49770;47.544;19.074;2023-05-03T14:22:50;100679.00;;;19.76;96.35
63622;BME280;49770;47.544;19.074;2023-05-03T14:25:58;100668.41;;;19.96;94.97
63622;BME280;49770;47.544;19.074;2023-05-03T14:29:06;100668.91;;;19.89;94.90
63622;BME280;49770;47.544;19.074;2023-05-03T14:32:12;100673.00;;;20.05;94.83
63622;BME280;49770;47.544;19.074;2023-05-03T14:35:18;100678.00;;;20.10;94.16
63622;BME280;49770;47.544;19.074;2023-05-03T14:38:22;100671.31;;;19.92;91.19
63622;BME280;49770;47.544;19.074;2023-05-03T14:41:29;100671.00;;;19.97;95.02
63622;BME280;49770;47.544;19.074;2023-05-03T14:44:35;100668.03;;;20.00;93.75
63622;BME280;49770;47.544;19.074;2023-05-03T14:47:45;100670.91;;;20.09;93.53
63622;BME280;49770;47.544;19.074;2023-05-03T14:50:53;100675.06;;;19.80;96.36
63622;BME280;49770;47.544;19.074;2023-05-03T14:54:03;100667.94;;;19.58;97.72
63622;BME280;49770;47.544;19.074;2023-05-03T14:57:07;100661.53;;;19.70;94.06
63622;BME280;49770;47.544;19.074;2023-05-03T15:00:16;100668.53;;;19.61;95.61
63622;BME280;49770;47.544;19.074;2023-05-03T15:03:23;100663.19;;;18.83;100.00
63622;BME280;49770;47.544;19.074;2023-05-03T15:06:34;100659.28;;;18.98;100.00
63622;BME280;49770;47.544;19.074;2023-05-03T15:09:44;100665.03;;;18.71;100.00
63622;BME280;49770;47.544;19.074;2023-05-03T15:12:51;100670.53;;;18.69;100.00
63622;BME280;49770;47.544;19.074;2023-05-03T15:15:57;100660.13;;;18.42;100.00
63622;BME280;49770;47.544;19.074;2023-05-03T15:19:07;100669.91;;;18.54;100.00
63622;BME280;49770;47.544;19.074;2023-05-03T15:22:14;100664.16;;;18.70;100.00
63622;BME280;49770;47.544;19.074;2023-05-03T15:25:24;100673.09;;;18.71;100.00
63622;BME280;49770;47.544;19.074;2023-05-03T15:28:31;100672.97;;;18.61;100.00
63622;BME280;49770;47.544;19.074;2023-05-03T15:31:39;100670.87;;;18.42;100.00
63622;BME280;49770;47.544;19.074;2023-05-03T15:34:46;100671.84;;;18.29;100.00
63622;BME280;49770;47.544;19.074;2023-05-03T15:37:56;100664.78;;;18.40;100.00
63622;BME280;49770;47.544;19.074;2023-05-03T15:41:03;100677.72;;;18.46;100.00
63622;BME280;49770;47.544;19.074;2023-05-03T15:44:13;100680.63;;;18.43;100.00
63622;BME280;49770;47.544;19.074;2023-05-03T15:47:20;100681.47;;;18.32;100.00
63622;BME280;49770;47.544;19.074;2023-05-03T15:50:29;100673.56;;;18.42;100.00
63622;BME280;49770;47.544;19.074;2023-05-03T15:53:36;100675.38;;;18.41;100.00
63622;BME280;49770;47.544;19.074;2023-05-03T15:56:43;100682.22;;;18.45;100.00
63622;BME280;49770;47.544;19.074;2023-05-03T15:59:51;100679.16;;;18.27;100.00
63622;BME280;49770;47.544;19.074;2023-05-03T16:02:59;100675.34;;;18.18;100.00
63622;BME280;49770;47.544;19.074;2023-05-03T16:06:07;100675.84;;;18.12;100.00
63622;BME280;49770;47.544;19.074;2023-05-03T16:56:24;100671.28;;;16.78;100.00
